Nissho Maru No7 — JH3472 — position and weather

sailwx.info

Track history (hours):
 
Tides and Currents Weather Stations Pressure Air Temp Water Temp Dewpoint Dewpoint Depression Visibility Wind Speed Wind Dir Waves Ship Positions

Nissho Maru No7

Last reported at 2014-Nov-27 13:06 UTC. Time now 2014-Nov-28 11:09 UTC.
Position N 34°35' E 134°51'.

Length 71 m; draft 4 m.

MMSI: 431200355.

Date/timePositionNaut miles runAvg speedWind from/ knotsBaromVisibWave heightAir tempDewpointWater temp
2014-Nov-27 13:06N 34°35' E 134°51'611.6
2014-Nov-27 12:33N 34°37' E 134°58'1110.9
2014-Nov-27 11:33N 34°36' E 135°11'1111.2
2014-Nov-27 10:33N 34°36' E 135°25'2 0.7
2014-Nov-27 07:18N 34°34' E 135°27'0 0.0
2014-Nov-27 06:30N 34°34' E 135°27'0 0.0
2014-Nov-27 04:30N 34°34' E 135°27'0 0.0
2014-Nov-27 03:30N 34°34' E 135°27'0 0.0
2014-Nov-27 02:18N 34°34' E 135°27'0 0.1
2014-Nov-27 01:24N 34°34' E 135°27'0 0.2
2014-Nov-26 22:13N 34°35' E 135°27'0 0.0
2014-Nov-26 21:25N 34°35' E 135°27'0 0.1
2014-Nov-26 20:30N 34°35' E 135°27'0 0.0
2014-Nov-26 19:31N 34°35' E 135°27'0 0.0
2014-Nov-26 18:25N 34°35' E 135°27'0 0.0
2014-Nov-26 17:19N 34°35' E 135°27'0 0.0
2014-Nov-26 16:30N 34°35' E 135°27'0 0.1
2014-Nov-26 15:30N 34°35' E 135°27'0 0.0
2014-Nov-26 14:12N 34°35' E 135°27'0 0.0
2014-Nov-26 13:18N 34°35' E 135°27'0 0.0
2014-Nov-26 11:18N 34°35' E 135°27'0 0.0
2014-Nov-26 09:30N 34°35' E 135°27'0 0.0
2014-Nov-26 07:21N 34°35' E 135°27'1 1.4
2014-Nov-26 06:34N 34°35' E 135°26'10 9.6
2014-Nov-26 05:33N 34°36' E 135°14'1010.2
2014-Nov-26 04:34N 34°37' E 135°02'12 8.8
2014-Nov-26 03:15N 34°41' E 134°49'1 0.1
2014-Nov-25 07:13N 34°41' E 134°50'5 7.6
2014-Nov-25 06:32N 34°37' E 134°54'8 8.5
2014-Nov-25 05:33N 34°36' E 135°04'2110.3
2014-Nov-25 03:28N 34°15' E 134°59'1010.7
2014-Nov-25 02:33N 34°05' E 134°60'  
2014-Nov-18 08:14N 35°03' E 139°44'811.7
2014-Nov-18 07:33N 35°11' E 139°46'1211.5
2014-Nov-18 06:33N 35°22' E 139°42'6 5.9
2014-Nov-18 05:32N 35°20' E 139°49'1 0.8
2014-Nov-18 04:33N 35°20' E 139°50'0 0.0
2014-Nov-18 03:33N 35°20' E 139°50'0 0.0
2014-Nov-18 02:33N 35°20' E 139°50'0 0.0
2014-Nov-18 01:33N 35°20' E 139°50'0 0.0
2014-Nov-18 00:33N 35°20' E 139°50'0 0.0
2014-Nov-17 23:33N 35°20' E 139°50'1 1.2
2014-Nov-17 22:33N 35°21' E 139°49'1 0.8
2014-Nov-17 21:33N 35°21' E 139°48'0 0.0
2014-Nov-17 20:33N 35°21' E 139°48'0 0.0
2014-Nov-17 19:33N 35°21' E 139°48'0 0.0
2014-Nov-17 18:33N 35°21' E 139°48'0 0.0
2014-Nov-17 17:33N 35°21' E 139°48'0 0.0
2014-Nov-17 16:33N 35°21' E 139°48'0 0.0
2014-Nov-17 15:33N 35°21' E 139°48'0 0.0
2014-Nov-17 14:33N 35°21' E 139°48'0 0.0
2014-Nov-17 13:33N 35°21' E 139°48'  
Track history (hours):
 
Tides and Currents Weather Stations Pressure Air Temp Water Temp Dewpoint Dewpoint Depression Visibility Wind Speed Wind Dir Waves Ship Positions

Nissho Maru No7

Last reported at 2014-Nov-27 13:06 UTC. Time now 2014-Nov-28 11:09 UTC.
Position N 34°35' E 134°51'.

Length 71 m; draft 4 m.

MMSI: 431200355.

Date/timePositionNaut miles runAvg speedWind from/ knotsBaromVisibWave heightAir tempDewpointWater temp
2014-Nov-27 13:06N 34°35' E 134°51'611.6
2014-Nov-27 12:33N 34°37' E 134°58'1110.9
2014-Nov-27 11:33N 34°36' E 135°11'1111.2
2014-Nov-27 10:33N 34°36' E 135°25'2 0.7
2014-Nov-27 07:18N 34°34' E 135°27'0 0.0
2014-Nov-27 06:30N 34°34' E 135°27'0 0.0
2014-Nov-27 04:30N 34°34' E 135°27'0 0.0
2014-Nov-27 03:30N 34°34' E 135°27'0 0.0
2014-Nov-27 02:18N 34°34' E 135°27'0 0.1
2014-Nov-27 01:24N 34°34' E 135°27'0 0.2
2014-Nov-26 22:13N 34°35' E 135°27'0 0.0
2014-Nov-26 21:25N 34°35' E 135°27'0 0.1
2014-Nov-26 20:30N 34°35' E 135°27'0 0.0
2014-Nov-26 19:31N 34°35' E 135°27'0 0.0
2014-Nov-26 18:25N 34°35' E 135°27'0 0.0
2014-Nov-26 17:19N 34°35' E 135°27'0 0.0
2014-Nov-26 16:30N 34°35' E 135°27'0 0.1
2014-Nov-26 15:30N 34°35' E 135°27'0 0.0
2014-Nov-26 14:12N 34°35' E 135°27'0 0.0
2014-Nov-26 13:18N 34°35' E 135°27'0 0.0
2014-Nov-26 11:18N 34°35' E 135°27'0 0.0
2014-Nov-26 09:30N 34°35' E 135°27'0 0.0
2014-Nov-26 07:21N 34°35' E 135°27'1 1.4
2014-Nov-26 06:34N 34°35' E 135°26'10 9.6
2014-Nov-26 05:33N 34°36' E 135°14'1010.2
2014-Nov-26 04:34N 34°37' E 135°02'12 8.8
2014-Nov-26 03:15N 34°41' E 134°49'1 0.1
2014-Nov-25 07:13N 34°41' E 134°50'5 7.6
2014-Nov-25 06:32N 34°37' E 134°54'8 8.5
2014-Nov-25 05:33N 34°36' E 135°04'2110.3
2014-Nov-25 03:28N 34°15' E 134°59'1010.7
2014-Nov-25 02:33N 34°05' E 134°60'  
2014-Nov-18 08:14N 35°03' E 139°44'811.7
2014-Nov-18 07:33N 35°11' E 139°46'1211.5
2014-Nov-18 06:33N 35°22' E 139°42'6 5.9
2014-Nov-18 05:32N 35°20' E 139°49'1 0.8
2014-Nov-18 04:33N 35°20' E 139°50'0 0.0
2014-Nov-18 03:33N 35°20' E 139°50'0 0.0
2014-Nov-18 02:33N 35°20' E 139°50'0 0.0
2014-Nov-18 01:33N 35°20' E 139°50'0 0.0
2014-Nov-18 00:33N 35°20' E 139°50'0 0.0
2014-Nov-17 23:33N 35°20' E 139°50'1 1.2
2014-Nov-17 22:33N 35°21' E 139°49'1 0.8
2014-Nov-17 21:33N 35°21' E 139°48'0 0.0
2014-Nov-17 20:33N 35°21' E 139°48'0 0.0
2014-Nov-17 19:33N 35°21' E 139°48'0 0.0
2014-Nov-17 18:33N 35°21' E 139°48'0 0.0
2014-Nov-17 17:33N 35°21' E 139°48'0 0.0
2014-Nov-17 16:33N 35°21' E 139°48'0 0.0
2014-Nov-17 15:33N 35°21' E 139°48'0 0.0
2014-Nov-17 14:33N 35°21' E 139°48'0 0.0
2014-Nov-17 13:33N 35°21' E 139°48'  

Dump ship's entire track history